Cordova, South Carolina
Current Conditions -  °F | °C
As of 10:53 PM on Saturday 20 Dec 2014 (Local Time) from KOGB Reporting Station
Overcast Overcast  
Wind Chill: 44°   Ceiling: 2900
Heat Index: 46°   Visibility: 8mi
Dew Point: 42°   Wind: 5mph
Humidity: 86%   Direction: 50°NE
Pressure: 30.25"   Gusts: NA
Location:  33.44°N, 80.92°W
Report Text: KOGB 210353Z AUTO 05004KT 8SM OVC029 08/06 A3025 RMK AO2 SLP243 T00780056
Loading
Personal Weather Stations






























Interactive Weather Map New forecast layout! Learn more

10-Day Weather Forecast

Advertisements
Track Severe Weather on mobile